createdAt,value
2018-04-24T00:03:01.707Z,11.80
2018-04-24T00:05:43.051Z,11.80
2018-04-24T00:10:58.655Z,11.80
2018-04-24T00:17:02.735Z,11.80
2018-04-24T00:19:46.130Z,11.80
2018-04-24T00:22:16.139Z,11.80
2018-04-24T00:30:44.259Z,11.70
2018-04-24T00:33:15.278Z,11.80
2018-04-24T00:35:49.945Z,11.80
2018-04-24T00:38:29.084Z,11.80
2018-04-24T00:41:02.160Z,11.70
2018-04-24T00:43:31.238Z,11.70
2018-04-24T00:46:01.215Z,11.70
2018-04-24T00:48:30.362Z,11.60
2018-04-24T00:50:59.530Z,11.50
2018-04-24T00:53:44.442Z,11.50
2018-04-24T00:56:14.689Z,11.50
2018-04-24T00:58:48.444Z,11.60
2018-04-24T01:03:56.927Z,11.60
2018-04-24T01:06:27.719Z,11.50
2018-04-24T01:09:05.677Z,11.50
2018-04-24T01:11:35.656Z,11.50
2018-04-24T01:14:13.210Z,11.50
2018-04-24T01:16:51.369Z,11.40
2018-04-24T01:19:20.535Z,11.40
2018-04-24T01:21:49.655Z,11.40
2018-04-24T01:24:49.041Z,11.40
2018-04-24T01:27:27.820Z,11.40
2018-04-24T01:30:09.489Z,11.40
2018-04-24T01:35:44.575Z,11.40
2018-04-24T01:42:12.244Z,11.30
2018-04-24T01:44:46.532Z,11.30
2018-04-24T01:47:39.239Z,11.30
2018-04-24T01:50:10.549Z,11.30
2018-04-24T01:55:54.316Z,11.30
2018-04-24T01:58:39.267Z,11.30
2018-04-24T02:01:09.442Z,11.30
2018-04-24T02:03:39.429Z,11.30
2018-04-24T02:06:14.545Z,11.30
2018-04-24T02:08:44.201Z,11.30
2018-04-24T02:16:57.526Z,11.20
2018-04-24T02:19:26.482Z,11.30
2018-04-24T02:21:56.138Z,11.20
2018-04-24T02:24:25.039Z,11.20
2018-04-24T02:26:54.692Z,11.20
2018-04-24T02:29:23.563Z,11.20
2018-04-24T02:31:52.457Z,11.30
2018-04-24T02:34:21.331Z,11.10
2018-04-24T02:36:50.259Z,11.10
2018-04-24T02:39:19.889Z,11.20
2018-04-24T02:41:48.815Z,11.20
2018-04-24T02:44:18.495Z,11.20
2018-04-24T02:46:47.372Z,11.30
2018-04-24T02:49:17.019Z,11.30
2018-04-24T02:51:45.937Z,11.30
2018-04-24T02:54:14.833Z,11.20
2018-04-24T02:56:44.468Z,11.10
2018-04-24T02:59:13.409Z,11.20
2018-04-24T03:01:42.286Z,11.20
2018-04-24T03:04:11.180Z,11.20
2018-04-24T03:06:40.059Z,11.20
2018-04-24T03:09:08.989Z,11.30
2018-04-24T03:11:38.636Z,11.30
2018-04-24T03:14:07.504Z,11.30
2018-04-24T03:16:36.397Z,11.50
2018-04-24T03:19:05.316Z,11.30
2018-04-24T03:21:34.966Z,11.40
2018-04-24T03:24:03.846Z,11.30
2018-04-24T03:26:32.739Z,11.30
2018-04-24T03:29:02.403Z,11.30
2018-04-24T03:31:31.278Z,11.30
2018-04-24T03:34:00.163Z,11.30
2018-04-24T03:36:29.086Z,11.30
2018-04-24T03:38:58.023Z,11.20
2018-04-24T03:41:26.893Z,11.20
2018-04-24T03:43:55.787Z,11.20
2018-04-24T03:46:25.422Z,11.20
2018-04-24T03:48:54.335Z,11.20
2018-04-24T03:51:23.227Z,11.20
2018-04-24T03:53:52.103Z,11.20
2018-04-24T03:56:21.744Z,11.20
2018-04-24T03:58:51.020Z,11.10
2018-04-24T04:01:19.891Z,11.20
2018-04-24T04:03:48.764Z,11.20
2018-04-24T04:06:17.684Z,11.20
2018-04-24T04:08:46.550Z,11.10
2018-04-24T04:11:15.447Z,11.10
2018-04-24T04:13:44.354Z,11.10
2018-04-24T04:16:13.242Z,11.10
2018-04-24T04:18:59.879Z,11.00
2018-04-24T04:21:46.695Z,11.00
2018-04-24T04:24:44.038Z,11.00
2018-04-24T04:27:13.679Z,10.90
2018-04-24T04:29:42.552Z,10.90
2018-04-24T04:32:11.452Z,11.00
2018-04-24T04:34:40.327Z,11.00
2018-04-24T04:37:09.252Z,11.00
2018-04-24T04:39:38.114Z,11.00
2018-04-24T04:42:07.751Z,11.00
2018-04-24T04:44:36.704Z,11.00
2018-04-24T04:47:05.573Z,10.90
2018-04-24T04:49:34.457Z,10.90
2018-04-24T04:52:03.380Z,10.80
2018-04-24T04:54:32.259Z,10.90
2018-04-24T04:57:01.920Z,10.90
2018-04-24T04:59:31.140Z,11.00
2018-04-24T05:02:00.790Z,11.10
2018-04-24T05:04:29.672Z,11.20
2018-04-24T05:06:58.563Z,11.30
2018-04-24T05:09:27.444Z,11.40
2018-04-24T05:11:56.336Z,11.50
2018-04-24T05:14:25.233Z,11.50
2018-04-24T05:16:54.135Z,11.60
2018-04-24T05:19:23.010Z,11.60
2018-04-24T05:21:51.884Z,11.70
2018-04-24T05:24:20.792Z,11.70
2018-04-24T05:26:49.663Z,11.70
2018-04-24T05:29:18.531Z,11.90
2018-04-24T05:31:47.425Z,12.00
2018-04-24T05:34:17.084Z,12.00
2018-04-24T05:36:45.982Z,11.90
2018-04-24T05:39:14.865Z,12.10
2018-04-24T05:41:44.519Z,12.20
2018-04-24T05:44:13.430Z,12.20
2018-04-24T05:46:42.300Z,12.50
2018-04-24T05:49:11.175Z,12.80
2018-04-24T05:51:40.073Z,12.90
2018-04-24T05:54:09.727Z,13.10
2018-04-24T05:56:38.601Z,13.10
2018-04-24T05:59:08.266Z,13.10
2018-04-24T06:01:37.140Z,13.20
2018-04-24T06:04:06.062Z,13.20
2018-04-24T06:06:34.930Z,13.20
2018-04-24T06:09:03.881Z,13.30
2018-04-24T06:11:32.791Z,13.50
2018-04-24T06:14:01.714Z,13.70
2018-04-24T06:16:30.574Z,14.70
2018-04-24T06:18:59.527Z,15.70
2018-04-24T06:21:29.162Z,15.40
2018-04-24T06:23:58.036Z,15.60
2018-04-24T06:26:26.937Z,15.70
2018-04-24T06:28:55.903Z,16.40
2018-04-24T06:31:24.812Z,16.40
2018-04-24T06:33:54.465Z,17.10
2018-04-24T06:36:23.357Z,16.90
2018-04-24T06:38:52.258Z,16.60
2018-04-24T06:41:21.947Z,16.50
2018-04-24T06:43:51.612Z,16.20
2018-04-24T06:46:20.493Z,16.00
2018-04-24T06:48:49.412Z,15.90
2018-04-24T06:51:18.291Z,15.70
2018-04-24T06:53:47.163Z,15.60
2018-04-24T06:56:16.063Z,15.60
2018-04-24T06:58:44.931Z,15.30
2018-04-24T07:01:13.840Z,15.40
2018-04-24T07:03:42.719Z,15.20
2018-04-24T07:06:11.596Z,15.10
2018-04-24T07:08:40.503Z,15.10
2018-04-24T07:11:10.141Z,15.00
2018-04-24T07:13:39.028Z,15.00
2018-04-24T07:16:07.956Z,15.10
2018-04-24T07:18:37.075Z,15.10
2018-04-24T07:21:05.952Z,15.10
2018-04-24T07:23:34.881Z,15.00
2018-04-24T07:26:03.763Z,14.90
2018-04-24T07:28:32.635Z,14.70
2018-04-24T07:31:01.539Z,14.60
2018-04-24T07:33:30.413Z,14.50
2018-04-24T07:35:59.283Z,14.40
2018-04-24T07:38:28.392Z,14.30
2018-04-24T07:40:57.267Z,14.30
2018-04-24T07:43:26.146Z,14.20
2018-04-24T07:45:55.051Z,14.20
2018-04-24T07:48:25.960Z,14.30
2018-04-24T07:50:55.627Z,14.20
2018-04-24T07:53:24.503Z,14.20
2018-04-24T07:55:53.405Z,14.10
2018-04-24T07:58:23.689Z,14.10
2018-04-24T08:00:52.656Z,14.10
2018-04-24T08:03:21.539Z,14.10
2018-04-24T08:05:50.443Z,14.10
2018-04-24T08:08:20.088Z,14.20
2018-04-24T08:10:48.987Z,14.10
2018-04-24T08:13:17.899Z,14.10
2018-04-24T08:15:46.779Z,14.20
2018-04-24T08:18:15.661Z,14.20
2018-04-24T08:20:44.560Z,14.20
2018-04-24T08:23:13.514Z,14.20
2018-04-24T08:25:42.416Z,14.20
2018-04-24T08:28:11.293Z,14.30
2018-04-24T08:30:40.212Z,14.30
2018-04-24T08:33:09.871Z,14.40
2018-04-24T08:35:38.779Z,14.50
2018-04-24T08:38:08.423Z,14.70
2018-04-24T08:40:37.328Z,14.70
2018-04-24T08:43:06.257Z,14.70
2018-04-24T08:45:35.136Z,14.80
2018-04-24T08:48:04.019Z,14.90
2018-04-24T08:50:33.040Z,15.00
2018-04-24T08:53:02.716Z,15.20
2018-04-24T08:55:31.594Z,15.40
2018-04-24T08:58:00.479Z,15.30
2018-04-24T09:00:30.161Z,15.30
2018-04-24T09:02:59.040Z,15.50
2018-04-24T09:05:27.933Z,15.50
2018-04-24T09:07:57.593Z,15.60
2018-04-24T09:10:26.468Z,15.70
2018-04-24T09:12:55.360Z,15.70
2018-04-24T09:15:24.235Z,15.60
2018-04-24T09:17:53.168Z,15.60
2018-04-24T09:20:22.059Z,15.60
2018-04-24T09:22:50.952Z,15.60
2018-04-24T09:25:19.852Z,15.70
2018-04-24T09:27:49.491Z,15.70
2018-04-24T09:30:18.372Z,15.60
2018-04-24T09:32:47.295Z,15.70
2018-04-24T09:35:22.421Z,15.70
2018-04-24T09:37:51.327Z,15.80
2018-04-24T09:40:20.194Z,15.80
2018-04-24T09:42:49.068Z,15.90
2018-04-24T09:45:17.989Z,16.00
2018-04-24T09:47:46.887Z,16.20
2018-04-24T09:50:15.775Z,16.30
2018-04-24T09:52:44.662Z,16.30
2018-04-24T09:55:13.648Z,16.20
2018-04-24T09:57:42.539Z,16.20
2018-04-24T10:00:11.476Z,16.30
2018-04-24T10:02:40.342Z,16.20
2018-04-24T10:05:09.978Z,16.10
2018-04-24T10:07:38.882Z,16.10
2018-04-24T10:10:07.753Z,16.00
2018-04-24T10:12:36.625Z,16.10
2018-04-24T10:15:05.524Z,16.10
2018-04-24T10:17:35.170Z,16.20
2018-04-24T10:20:04.107Z,16.30
2018-04-24T10:22:34.238Z,16.20
2018-04-24T10:25:04.007Z,16.30
2018-04-24T10:27:33.651Z,16.30
2018-04-24T10:30:02.527Z,16.30
2018-04-24T10:32:31.423Z,16.50
2018-04-24T10:35:00.303Z,16.50
2018-04-24T10:37:29.986Z,16.60
2018-04-24T10:39:58.867Z,16.70
2018-04-24T10:42:27.761Z,16.80
2018-04-24T10:44:57.408Z,16.90
2018-04-24T10:47:26.284Z,17.10
2018-04-24T10:49:55.195Z,17.30
2018-04-24T10:52:24.835Z,17.40
2018-04-24T10:54:53.780Z,17.60
2018-04-24T10:57:22.703Z,17.90
2018-04-24T10:59:51.579Z,18.20
2018-04-24T11:02:20.475Z,18.50
2018-04-24T11:04:49.390Z,18.60
2018-04-24T11:07:18.256Z,18.70
2018-04-24T11:09:47.127Z,18.90
2018-04-24T11:12:16.038Z,18.90
2018-04-24T11:14:44.916Z,18.90
2018-04-24T11:17:13.796Z,18.90
2018-04-24T11:19:42.687Z,19.00
2018-04-24T11:22:11.559Z,19.00
2018-04-24T11:24:40.874Z,19.20
2018-04-24T11:27:09.743Z,19.20
2018-04-24T11:29:39.411Z,19.20
2018-04-24T11:32:08.303Z,19.30
2018-04-24T11:34:37.215Z,19.70
2018-04-24T11:37:06.080Z,20.00
2018-04-24T11:39:34.959Z,20.30
2018-04-24T11:42:03.856Z,20.40
2018-04-24T11:44:32.751Z,20.30
2018-04-24T11:47:01.639Z,20.50
2018-04-24T11:49:30.616Z,20.60
2018-04-24T11:51:59.447Z,20.90
2018-04-24T11:54:28.325Z,20.80
2018-04-24T11:56:57.279Z,21.00
2018-04-24T11:59:26.907Z,21.20
2018-04-24T12:01:55.796Z,21.10
2018-04-24T12:04:24.662Z,21.30
2018-04-24T12:06:53.547Z,21.50
2018-04-24T12:09:22.444Z,21.70
2018-04-24T12:11:52.902Z,21.80
2018-04-24T12:14:21.811Z,21.60
2018-04-24T12:16:50.697Z,21.40
2018-04-24T12:19:19.663Z,21.50
2018-04-24T12:21:48.540Z,21.30
2018-04-24T12:24:17.414Z,21.20
2018-04-24T12:26:46.299Z,21.10
2018-04-24T12:29:15.235Z,21.00
2018-04-24T12:31:44.120Z,20.80
2018-04-24T12:34:12.992Z,20.50
2018-04-24T12:36:41.907Z,20.60
2018-04-24T12:39:10.772Z,20.30
2018-04-24T12:41:40.524Z,20.30
2018-04-24T12:44:09.420Z,20.20
2018-04-24T12:46:38.289Z,20.30
2018-04-24T12:49:07.170Z,20.10
2018-04-24T12:51:36.843Z,20.10
2018-04-24T12:54:05.721Z,20.00
2018-04-24T12:56:34.588Z,19.90
2018-04-24T12:59:03.504Z,19.80
2018-04-24T13:01:32.374Z,19.90
2018-04-24T13:04:01.264Z,20.00
2018-04-24T13:06:30.167Z,20.20
2018-04-24T13:08:59.875Z,20.30
2018-04-24T13:11:28.775Z,20.30
2018-04-24T13:13:57.643Z,20.40
2018-04-24T13:16:26.511Z,20.40
2018-04-24T13:18:55.420Z,20.40
2018-04-24T13:24:00.127Z,20.20
2018-04-24T13:26:28.991Z,20.40
2018-04-24T13:28:57.949Z,20.40
2018-04-24T13:31:26.831Z,20.40
2018-04-24T13:33:55.736Z,20.50
2018-04-24T13:36:24.615Z,20.50
2018-04-24T13:38:53.516Z,20.40
2018-04-24T13:41:23.174Z,20.60
2018-04-24T13:43:52.088Z,20.60
2018-04-24T13:46:20.995Z,20.30
2018-04-24T13:48:49.873Z,20.40
2018-04-24T13:51:18.743Z,20.30
2018-04-24T13:53:47.639Z,20.30
2018-04-24T13:56:16.504Z,20.20
2018-04-24T13:58:45.367Z,20.20
2018-04-24T14:01:14.250Z,20.40
2018-04-24T14:03:43.115Z,20.50
2018-04-24T14:06:12.024Z,20.50
2018-04-24T14:08:40.899Z,20.30
2018-04-24T14:11:09.771Z,20.00
2018-04-24T14:13:38.799Z,20.00
2018-04-24T14:16:07.668Z,20.30
2018-04-24T14:18:36.539Z,20.30
2018-04-24T14:21:06.220Z,20.40
2018-04-24T14:23:35.111Z,20.40
2018-04-24T14:26:03.998Z,20.50
2018-04-24T14:28:32.920Z,20.40
2018-04-24T14:31:01.788Z,20.30
2018-04-24T14:33:30.662Z,20.20
2018-04-24T14:35:59.592Z,20.20
2018-04-24T14:38:28.584Z,20.20
2018-04-24T14:40:57.475Z,20.10
2018-04-24T14:43:26.408Z,19.90
2018-04-24T14:45:56.043Z,19.70
2018-04-24T14:48:25.028Z,19.70
2018-04-24T14:50:54.199Z,19.70
2018-04-24T14:53:23.071Z,19.70
2018-04-24T14:55:52.711Z,19.70
2018-04-24T14:58:22.442Z,19.80
2018-04-24T15:00:52.036Z,19.80
2018-04-24T15:03:20.954Z,19.90
2018-04-24T15:05:50.039Z,19.90
2018-04-24T15:08:18.910Z,20.00
2018-04-24T15:10:47.795Z,20.10
2018-04-24T15:13:16.698Z,20.20
2018-04-24T15:15:45.558Z,20.40
2018-04-24T15:18:15.281Z,20.50
2018-04-24T15:20:44.167Z,20.60
2018-04-24T15:23:13.048Z,20.70
2018-04-24T15:25:41.967Z,20.60
2018-04-24T15:28:11.618Z,20.40
2018-04-24T15:30:40.495Z,20.40
2018-04-24T15:33:09.391Z,20.50
2018-04-24T15:35:38.279Z,20.50
2018-04-24T15:38:07.175Z,20.40
2018-04-24T15:40:36.096Z,20.20
2018-04-24T15:43:04.994Z,20.10
2018-04-24T15:45:33.884Z,20.00
2018-04-24T15:48:03.656Z,19.90
2018-04-24T15:50:32.485Z,19.70
2018-04-24T15:53:01.357Z,19.60
2018-04-24T15:55:30.246Z,19.50
2018-04-24T15:57:59.143Z,19.60
2018-04-24T16:00:28.019Z,19.50
2018-04-24T16:02:56.962Z,19.50
2018-04-24T16:05:25.813Z,19.40
2018-04-24T16:07:54.691Z,19.30
2018-04-24T16:10:23.584Z,19.10
2018-04-24T16:12:52.449Z,19.10
2018-04-24T16:15:21.355Z,19.00
2018-04-24T16:17:50.227Z,19.00
2018-04-24T16:20:19.095Z,18.90
2018-04-24T16:22:48.163Z,18.70
2018-04-24T16:25:17.038Z,18.60
2018-04-24T16:27:45.931Z,18.50
2018-04-24T16:30:14.809Z,18.40
2018-04-24T16:32:43.679Z,18.40
2018-04-24T16:35:12.675Z,18.50
2018-04-24T16:37:41.496Z,18.50
2018-04-24T16:40:10.411Z,18.40
2018-04-24T16:42:39.319Z,18.40
2018-04-24T16:45:08.196Z,18.40
2018-04-24T16:47:37.831Z,18.30
2018-04-24T16:50:06.723Z,18.20
2018-04-24T16:52:35.583Z,18.00
2018-04-24T16:55:04.547Z,17.90
2018-04-24T16:57:33.461Z,17.70
2018-04-24T17:00:02.332Z,17.50
2018-04-24T17:02:31.219Z,17.40
2018-04-24T17:05:00.143Z,17.20
2018-04-24T17:07:29.016Z,17.10
2018-04-24T17:09:57.891Z,16.90
2018-04-24T17:12:27.889Z,16.80
2018-04-24T17:14:56.953Z,16.70
2018-04-24T17:17:26.003Z,16.50
2018-04-24T17:19:55.183Z,16.40
2018-04-24T17:22:24.212Z,16.30
2018-04-24T17:24:53.416Z,16.20
2018-04-24T17:27:22.515Z,16.10
2018-04-24T17:29:51.599Z,15.90
2018-04-24T17:32:20.757Z,15.90
2018-04-24T17:34:49.805Z,15.70
2018-04-24T17:37:18.973Z,15.60
2018-04-24T17:39:47.855Z,15.50
2018-04-24T17:42:16.729Z,15.40
2018-04-24T17:44:45.728Z,15.30
2018-04-24T17:47:14.635Z,15.20
2018-04-24T17:49:43.504Z,15.10
2018-04-24T17:52:12.371Z,15.00
2018-04-24T17:54:41.270Z,14.90
2018-04-24T17:57:10.233Z,14.80
2018-04-24T17:59:39.095Z,14.80
2018-04-24T18:02:08.175Z,14.60
2018-04-24T18:04:37.079Z,14.50
2018-04-24T18:07:06.056Z,14.50
2018-04-24T18:09:34.993Z,14.40
2018-04-24T18:12:04.045Z,14.30
2018-04-24T18:14:33.752Z,14.20
2018-04-24T18:17:02.676Z,14.00
2018-04-24T18:19:31.587Z,13.90
2018-04-24T18:22:00.518Z,13.80
2018-04-24T18:24:29.387Z,13.80
2018-04-24T18:26:59.023Z,13.60
2018-04-24T18:29:28.679Z,13.50
2018-04-24T18:31:57.623Z,13.50
2018-04-24T18:34:27.449Z,13.40
2018-04-24T18:36:56.323Z,13.40
2018-04-24T18:39:25.235Z,13.30
2018-04-24T18:41:54.967Z,13.30
2018-04-24T18:44:24.007Z,13.20
2018-04-24T18:46:53.643Z,13.10
2018-04-24T18:49:22.526Z,13.00
2018-04-24T18:51:51.403Z,13.00
2018-04-24T18:54:20.318Z,13.00
2018-04-24T18:56:49.960Z,13.00
2018-04-24T18:59:18.863Z,13.00
2018-04-24T19:01:47.751Z,12.90
2018-04-24T19:04:16.672Z,12.90
2018-04-24T19:06:45.632Z,12.80
2018-04-24T19:09:14.559Z,12.70
2018-04-24T19:11:43.458Z,12.60
2018-04-24T19:14:17.779Z,12.70
2018-04-24T19:16:46.647Z,12.60
2018-04-24T19:19:21.745Z,12.50
2018-04-24T19:21:50.624Z,12.50
2018-04-24T19:24:25.117Z,12.50
2018-04-24T19:26:54.072Z,12.40
2018-04-24T19:29:22.952Z,12.40
2018-04-24T19:31:57.255Z,12.30
2018-04-24T19:34:26.127Z,12.50
2018-04-24T19:36:55.011Z,12.50
2018-04-24T19:39:29.496Z,12.40
2018-04-24T19:41:58.386Z,12.40
2018-04-24T19:44:27.271Z,12.40
2018-04-24T19:46:56.212Z,12.40
2018-04-24T19:49:30.707Z,12.30
2018-04-24T19:51:59.593Z,12.30
2018-04-24T19:54:28.471Z,12.20
2018-04-24T19:56:57.363Z,12.10
2018-04-24T19:59:26.256Z,11.90
2018-04-24T20:01:55.179Z,11.80
2018-04-24T20:04:24.152Z,11.80
2018-04-24T20:06:53.026Z,11.70
2018-04-24T20:09:21.923Z,11.70
2018-04-24T20:11:50.811Z,11.60
2018-04-24T20:14:19.689Z,11.60
2018-04-24T20:16:48.603Z,11.50
2018-04-24T20:19:18.333Z,11.50
2018-04-24T20:21:47.169Z,11.50
2018-04-24T20:24:16.811Z,11.50
2018-04-24T20:26:45.711Z,11.40
2018-04-24T20:29:14.599Z,11.30
2018-04-24T20:31:43.515Z,11.30
2018-04-24T20:34:12.387Z,11.20
2018-04-24T20:36:41.299Z,11.10
2018-04-24T20:39:10.166Z,11.10
2018-04-24T20:41:39.032Z,10.90
2018-04-24T20:44:07.956Z,10.90
2018-04-24T20:46:37.692Z,10.80
2018-04-24T20:49:06.565Z,10.80
2018-04-24T20:51:35.494Z,10.80
2018-04-24T20:54:04.407Z,10.70
2018-04-24T20:56:44.776Z,10.70
2018-04-24T20:59:38.887Z,10.70
2018-04-24T21:02:08.784Z,10.60
2018-04-24T21:08:03.156Z,10.50
2018-04-24T21:19:47.179Z,10.30
2018-04-24T21:22:16.148Z,10.30
2018-04-24T21:24:45.808Z,10.30
2018-04-24T21:27:14.718Z,10.20
2018-04-24T21:29:44.373Z,10.20
2018-04-24T21:32:13.296Z,10.30
2018-04-24T21:34:42.979Z,10.30
2018-04-24T21:37:11.853Z,10.20
2018-04-24T21:39:40.743Z,10.20
2018-04-24T21:42:10.429Z,10.20
2018-04-24T21:44:41.602Z,10.00
2018-04-24T21:47:10.691Z,10.00
2018-04-24T22:05:35.819Z,9.80
2018-04-24T22:11:12.090Z,9.70
2018-04-24T22:14:08.733Z,9.80
2018-04-24T22:19:46.004Z,9.60
2018-04-24T22:22:14.920Z,9.60
2018-04-24T22:24:43.800Z,9.60
2018-04-24T22:27:12.686Z,9.50
2018-04-24T22:29:42.347Z,9.50
2018-04-24T22:32:11.219Z,9.50
2018-04-24T22:34:40.144Z,9.50
2018-04-24T22:37:09.802Z,9.50
2018-04-24T22:39:38.707Z,9.40
2018-04-24T22:42:08.445Z,9.50
2018-04-24T22:44:38.714Z,9.40
2018-04-24T22:47:08.493Z,9.40
2018-04-24T22:49:37.434Z,9.40
2018-04-24T22:52:06.520Z,9.30
2018-04-24T22:54:35.432Z,9.40
2018-04-24T22:57:04.301Z,9.40
2018-04-24T22:59:33.216Z,9.30
2018-04-24T23:02:15.032Z,9.30
2018-04-24T23:04:43.908Z,9.30
2018-04-24T23:07:12.804Z,9.20
2018-04-24T23:09:53.414Z,9.10
2018-04-24T23:12:40.862Z,9.10
2018-04-24T23:15:27.760Z,9.10
2018-04-24T23:18:14.528Z,8.90
2018-04-24T23:23:17.792Z,8.90
2018-04-24T23:25:47.623Z,8.90
2018-04-24T23:28:16.541Z,8.90
2018-04-24T23:30:45.491Z,8.80
2018-04-24T23:33:14.456Z,8.90
2018-04-24T23:35:44.107Z,8.90
2018-04-24T23:38:13.027Z,8.80
2018-04-24T23:40:42.005Z,8.90
2018-04-24T23:43:11.051Z,8.80
2018-04-24T23:45:40.060Z,8.80
2018-04-24T23:48:08.976Z,8.80
2018-04-24T23:50:37.896Z,8.80
2018-04-24T23:53:06.818Z,8.80
2018-04-24T23:55:35.731Z,8.80
2018-04-24T23:58:04.707Z,8.70
